Fall River Mills, CA (96028)

9:08 PM PDT on August 22, 2014 (GMT -0700)
Glenburn | Change Station
CLOSE
Current Station
Personal Weather Station
Location: Fall River Mills, CA
Elevation: 3347 ft
Nearby Weather Stations

Elev 3347 ft 41.08 °N, 121.54 °W | Updated 17 seconds ago

Clear
Clear
66.2 °F
Feels Like 66.2 °F
N
0.0
Wind Variable Wind from North
Gusts 0.0 mph

Today
High -- | Low -- °F
--% Chance of Precip.
Yesterday
High -- | Low -- °F
Precip. -- in
6:22 AM 7:54 PM
Waning Crescent, 5% visible
Pressure 29.99 in
Visibility 10.0 miles
Clouds Clear
Dew Point 36 °F
Humidity 33%
Rainfall 0.00 in
Snow Depth Not available.
UV 0 out of 12
Pollen 7.80 out of 12
Air Quality Not available.
Flu Activity Not available.
METAR KMHS 230356Z AUTO VRB05KT 10SM CLR 19/03 A3002 RMK AO2 SLP154 T01940028

More Conditions Fewer Conditions

Pressure 29.99 in
Visibility 10.0 miles
Clouds Clear
Dew Point 36 °F
Humidity 33%
Rainfall 0.00 in
Snow Depth Not available.
UV 0 out of 12
Pollen 7.80 out of 12
Air Quality Not available.
Flu Activity Not available.
METAR KMHS 230356Z AUTO VRB05KT 10SM CLR 19/03 A3002 RMK AO2 SLP154 T01940028

More Conditions Fewer Conditions

10-Day Weather Forecast

Almanac

Astronomy

Aug. 22, 2014 Rise Set
Actual Time 6:22 AM PDT 7:54 PM PDT
Civil Twilight 5:53 AM PDT 8:23 PM PDT
Nautical Twilight 5:18 AM PDT 8:57 PM PDT
Astronomical Twilight 4:41 AM PDT 9:34 PM PDT
Moon 3:49 AM PDT (8/22) 6:06 PM PDT (8/22)
Length of Visible Light 14h 29m
Length of Day
13h 31m
Tomorrow will be 2m 31s shorter.
Waning Crescent, 5% of the Moon is Illuminated
Aug 23
Waning Crescent
Aug 25
New
Sep 2
First Quarter
Sep 8
Full
Sep 15
Last Quarter

Today's Extremes

State Highs State Lows

Community

WunderPhotos

Upload Photos

1,746,351 photos uploaded!

WunderBlogs® & News

Nearby

Snow Depth

Station Depth Elevation
Adin Mountain 0 in 6200 ft
Cedar Pass 0 in 7100 ft
Tahoe City Cross 0 in 6750 ft
Echo Peak 1 in 7800 ft
Hagan's Meadow 0 in 8000 ft

Earthquake Activity

City Distance Mag. Time & Date
No recent earthquake activity has been reported nearby.
Minimum magnitude displayed is 2.5.

Coastal Water Temperatures

Place Temperature
No Stations Reporting

Nearby Weather Stations